createdAt,value
2019-05-07T00:00:00.037Z,12.50
2019-05-07T00:02:17.692Z,16.93
2019-05-07T00:04:25.140Z,19.73
2019-05-07T00:06:32.658Z,19.73
2019-05-07T00:08:39.990Z,21.90
2019-05-07T00:10:47.316Z,15.70
2019-05-07T00:12:55.029Z,15.67
2019-05-07T00:15:04.561Z,15.43
2019-05-07T00:17:13.097Z,14.13
2019-05-07T00:19:20.493Z,13.97
2019-05-07T00:21:27.833Z,15.67
2019-05-07T00:23:35.195Z,14.87
2019-05-07T00:25:42.406Z,18.17
2019-05-07T00:27:52.171Z,18.30
2019-05-07T00:29:58.842Z,12.77
2019-05-07T00:32:06.138Z,12.33
2019-05-07T00:34:14.644Z,15.93
2019-05-07T00:36:47.003Z,22.57
2019-05-07T00:39:00.209Z,20.90
2019-05-07T00:41:24.385Z,20.80
2019-05-07T00:43:34.915Z,23.03
2019-05-07T00:45:56.830Z,16.90
2019-05-07T00:48:03.523Z,16.03
2019-05-07T00:50:16.584Z,16.13
2019-05-07T00:52:23.923Z,15.40
2019-05-07T00:54:32.507Z,13.90
2019-05-07T00:56:39.913Z,16.07
2019-05-07T00:58:47.317Z,19.17
2019-05-07T01:00:54.626Z,19.53
2019-05-07T01:03:03.038Z,18.83
2019-05-07T01:05:12.289Z,19.33
2019-05-07T01:07:19.618Z,19.67
2019-05-07T01:09:26.930Z,23.47
2019-05-07T01:11:34.605Z,15.73
2019-05-07T01:13:43.201Z,18.30
2019-05-07T01:15:52.983Z,16.27
2019-05-07T01:17:59.519Z,18.67
2019-05-07T01:20:07.144Z,17.17
2019-05-07T01:22:14.494Z,22.47
2019-05-07T01:24:23.306Z,19.77
2019-05-07T01:26:32.950Z,15.13
2019-05-07T01:28:57.653Z,26.27
2019-05-07T01:31:05.069Z,19.07
2019-05-07T01:33:26.816Z,18.40
2019-05-07T01:35:52.882Z,22.33
2019-05-07T01:38:00.268Z,19.97
2019-05-07T01:40:07.645Z,15.33
2019-05-07T01:42:14.947Z,15.53
2019-05-07T01:44:22.324Z,17.60
2019-05-07T01:46:29.465Z,20.60
2019-05-07T01:48:36.791Z,18.90
2019-05-07T01:50:44.120Z,19.27
2019-05-07T01:52:52.236Z,16.87
2019-05-07T01:54:59.699Z,23.63
2019-05-07T01:57:07.116Z,23.13
2019-05-07T01:59:14.425Z,21.43
2019-05-07T02:01:22.185Z,20.60
2019-05-07T02:03:42.022Z,19.10
2019-05-07T02:05:54.624Z,14.67
2019-05-07T02:08:04.339Z,22.60
2019-05-07T02:10:33.505Z,17.37
2019-05-07T02:12:42.548Z,24.57
2019-05-07T02:14:49.961Z,19.57
2019-05-07T02:16:57.304Z,19.70
2019-05-07T02:19:04.963Z,17.00
2019-05-07T02:21:13.220Z,15.97
2019-05-07T02:23:22.183Z,19.77
2019-05-07T02:25:29.579Z,16.73
2019-05-07T02:27:36.853Z,20.40
2019-05-07T02:29:44.358Z,17.73
2019-05-07T02:31:53.113Z,15.73
2019-05-07T02:34:02.819Z,18.10
2019-05-07T02:36:09.700Z,16.27
2019-05-07T02:38:33.662Z,23.57
2019-05-07T02:40:53.374Z,23.27
2019-05-07T02:43:02.683Z,25.93
2019-05-07T02:45:26.769Z,23.43
2019-05-07T02:47:34.948Z,24.70
2019-05-07T02:49:49.258Z,25.13
2019-05-07T02:52:04.815Z,20.07
2019-05-07T02:54:26.964Z,23.37
2019-05-07T02:56:34.126Z,20.87
2019-05-07T02:58:43.388Z,18.07
2019-05-07T03:00:52.977Z,16.67
2019-05-07T03:02:59.383Z,22.07
2019-05-07T03:05:07.132Z,16.13
2019-05-07T03:07:14.503Z,21.63
2019-05-07T03:09:22.745Z,20.87
2019-05-07T03:11:33.650Z,16.37
2019-05-07T03:13:39.603Z,19.33
2019-05-07T03:15:47.121Z,21.07
2019-05-07T03:17:54.429Z,21.40
2019-05-07T03:20:04.106Z,20.17
2019-05-07T03:22:14.019Z,20.87
2019-05-07T03:24:39.131Z,19.97
2019-05-07T03:26:47.134Z,20.53
2019-05-07T03:28:56.735Z,23.07
2019-05-07T03:31:16.586Z,29.67
2019-05-07T03:33:47.155Z,20.03
2019-05-07T03:35:56.250Z,23.17
2019-05-07T03:38:03.681Z,24.87
2019-05-07T03:40:14.081Z,20.97
2019-05-07T03:42:23.407Z,21.40
2019-05-07T03:44:48.002Z,20.67
2019-05-07T03:47:02.334Z,20.23
2019-05-07T03:49:07.448Z,21.47
2019-05-07T03:51:14.719Z,18.50
2019-05-07T03:53:22.999Z,18.10
2019-05-07T03:55:33.240Z,18.00
2019-05-07T03:57:39.835Z,22.37
2019-05-07T03:59:48.021Z,22.40
2019-05-07T04:01:55.263Z,18.07
2019-05-07T04:04:03.761Z,20.37
2019-05-07T04:06:12.752Z,17.43
2019-05-07T04:08:23.312Z,21.13
2019-05-07T04:10:29.084Z,21.77
2019-05-07T04:12:36.349Z,24.53
2019-05-07T04:14:43.764Z,22.80
2019-05-07T04:16:53.608Z,19.93
2019-05-07T04:19:03.648Z,20.90
2019-05-07T04:21:09.299Z,21.63
2019-05-07T04:23:16.716Z,22.30
2019-05-07T04:25:39.533Z,18.77
2019-05-07T04:28:03.821Z,20.77
2019-05-07T04:30:12.923Z,19.53
2019-05-07T04:32:23.153Z,20.20
2019-05-07T04:34:58.378Z,27.83
2019-05-07T04:37:05.680Z,21.07
2019-05-07T04:39:13.510Z,19.37
2019-05-07T04:41:23.383Z,18.67
2019-05-07T04:43:29.968Z,19.97
2019-05-07T04:45:37.255Z,22.27
2019-05-07T04:47:47.827Z,20.43
2019-05-07T04:49:53.880Z,19.73
2019-05-07T04:52:06.418Z,26.20
2019-05-07T04:54:13.790Z,19.07
2019-05-07T04:56:23.953Z,19.90
2019-05-07T04:58:30.215Z,20.70
2019-05-07T05:00:37.712Z,19.33
2019-05-07T05:03:03.795Z,20.10
2019-05-07T05:05:12.851Z,23.53
2019-05-07T05:07:22.484Z,20.97
2019-05-07T05:09:29.475Z,19.60
2019-05-07T05:11:36.962Z,17.20
2019-05-07T05:13:45.020Z,17.43
2019-05-07T05:15:52.821Z,20.57
2019-05-07T05:18:02.433Z,17.23
2019-05-07T05:20:10.211Z,18.77
2019-05-07T05:22:39.193Z,18.73
2019-05-07T05:24:49.441Z,17.63
2019-05-07T05:26:56.711Z,17.43
2019-05-07T05:29:04.012Z,17.67
2019-05-07T05:31:12.645Z,16.57
2019-05-07T05:33:20.178Z,31.23
2019-05-07T05:35:27.535Z,21.80
2019-05-07T05:37:34.829Z,23.17
2019-05-07T05:39:42.814Z,20.10
2019-05-07T05:41:53.444Z,18.30
2019-05-07T05:44:19.509Z,17.93
2019-05-07T05:46:28.405Z,17.83
2019-05-07T05:48:35.784Z,20.57
2019-05-07T05:50:53.617Z,17.77
2019-05-07T05:53:09.781Z,19.43
2019-05-07T05:55:20.055Z,19.47
2019-05-07T05:57:45.063Z,17.70
2019-05-07T06:00:12.654Z,20.33
2019-05-07T06:02:37.685Z,20.60
2019-05-07T06:04:58.842Z,16.40
2019-05-07T06:07:14.593Z,20.00
2019-05-07T06:09:29.310Z,20.37
2019-05-07T06:11:58.428Z,18.63
2019-05-07T06:14:33.976Z,20.07
2019-05-07T06:16:47.153Z,14.17
2019-05-07T06:19:13.213Z,20.90
2019-05-07T06:21:32.281Z,15.30
2019-05-07T06:23:44.827Z,16.27
2019-05-07T06:25:52.420Z,14.80
2019-05-07T06:28:01.807Z,14.57
2019-05-07T06:30:12.102Z,16.77
2019-05-07T06:32:22.763Z,12.93
2019-05-07T06:34:29.897Z,18.30
2019-05-07T06:36:38.852Z,11.83
2019-05-07T06:38:53.092Z,16.10
2019-05-07T06:41:19.269Z,12.07
2019-05-07T06:43:48.102Z,16.67
2019-05-07T06:45:57.064Z,10.70
2019-05-07T06:48:04.336Z,13.77
2019-05-07T06:50:12.557Z,13.70
2019-05-07T06:52:19.916Z,15.85
2019-05-07T06:54:27.316Z,8.37
2019-05-07T06:56:34.601Z,11.60
2019-05-07T06:58:52.476Z,15.00
2019-05-07T07:01:18.357Z,13.40
2019-05-07T07:03:35.696Z,10.97
2019-05-07T07:06:04.168Z,15.20
2019-05-07T07:08:23.036Z,13.43
2019-05-07T07:10:47.770Z,13.43
2019-05-07T07:12:55.270Z,15.33
2019-05-07T07:15:02.868Z,9.70
2019-05-07T07:17:12.770Z,9.10
2019-05-07T07:19:19.515Z,15.53
2019-05-07T07:21:26.742Z,7.47
2019-05-07T07:23:34.371Z,11.50
2019-05-07T07:25:42.993Z,11.77
2019-05-07T07:27:52.071Z,10.17
2019-05-07T07:30:21.836Z,9.30
2019-05-07T07:32:35.119Z,9.83
2019-05-07T07:34:47.703Z,8.50
2019-05-07T07:37:06.032Z,14.43
2019-05-07T07:39:12.572Z,7.33
2019-05-07T07:41:34.148Z,9.07
2019-05-07T07:43:42.015Z,11.10
2019-05-07T07:45:49.395Z,7.00
2019-05-07T07:47:56.781Z,10.63
2019-05-07T07:50:04.168Z,5.77
2019-05-07T07:52:12.218Z,11.13
2019-05-07T07:54:19.715Z,7.97
2019-05-07T07:56:56.131Z,8.97
2019-05-07T07:59:12.643Z,19.77
2019-05-07T08:01:42.231Z,9.07
2019-05-07T08:03:49.698Z,10.60
2019-05-07T08:05:56.982Z,12.07
2019-05-07T08:08:04.444Z,15.23
2019-05-07T08:10:12.988Z,38.67
2019-05-07T08:12:22.136Z,176.90
2019-05-07T08:14:29.771Z,178.83
2019-05-07T08:16:37.344Z,176.03
2019-05-07T08:18:44.856Z,174.70
2019-05-07T08:20:52.122Z,9.17
2019-05-07T08:22:59.373Z,12.00
2019-05-07T08:25:08.324Z,9.20
2019-05-07T08:27:15.700Z,5.70
2019-05-07T08:29:22.974Z,7.70
2019-05-07T08:31:46.986Z,7.73
2019-05-07T08:34:03.315Z,7.60
2019-05-07T08:36:18.474Z,5.73
2019-05-07T08:38:25.759Z,6.27
2019-05-07T08:40:33.349Z,7.73
2019-05-07T08:42:41.892Z,7.33
2019-05-07T08:44:59.992Z,8.97
2019-05-07T08:47:29.253Z,9.37
2019-05-07T08:49:40.097Z,9.03
2019-05-07T08:51:51.935Z,9.77
2019-05-07T08:54:05.835Z,7.73
2019-05-07T08:56:13.234Z,9.00
2019-05-07T08:58:22.397Z,9.47
2019-05-07T09:00:32.443Z,9.30
2019-05-07T09:02:39.616Z,8.20
2019-05-07T09:04:46.956Z,7.30
2019-05-07T09:06:54.684Z,9.90
2019-05-07T09:09:02.963Z,9.10
2019-05-07T09:11:10.668Z,9.27
2019-05-07T09:13:18.289Z,5.40
2019-05-07T09:15:25.535Z,6.13
2019-05-07T09:17:32.746Z,6.03
2019-05-07T09:19:48.365Z,8.67
2019-05-07T09:21:49.207Z,7.17
2019-05-07T09:23:56.645Z,9.50
2019-05-07T09:26:04.030Z,6.80
2019-05-07T09:28:11.906Z,6.00
2019-05-07T09:30:32.525Z,4.77
2019-05-07T09:33:05.500Z,7.00
2019-05-07T09:35:16.268Z,5.30
2019-05-07T09:37:26.590Z,4.73
2019-05-07T09:39:34.071Z,6.50
2019-05-07T09:41:41.805Z,6.13
2019-05-07T09:43:49.360Z,4.33
2019-05-07T09:45:57.239Z,6.30
2019-05-07T09:48:05.246Z,5.30
2019-05-07T09:50:12.955Z,6.90
2019-05-07T09:52:22.667Z,7.70
2019-05-07T09:54:29.234Z,5.07
2019-05-07T09:56:36.560Z,4.83
2019-05-07T09:58:43.984Z,9.03
2019-05-07T10:00:51.252Z,6.20
2019-05-07T10:02:58.810Z,5.83
2019-05-07T10:05:06.821Z,5.97
2019-05-07T10:07:14.244Z,3.73
2019-05-07T10:09:22.318Z,5.00
2019-05-07T10:11:36.411Z,5.87
2019-05-07T10:13:48.632Z,4.62
2019-05-07T10:15:56.190Z,4.30
2019-05-07T10:18:14.943Z,10.37
2019-05-07T10:20:24.329Z,6.47
2019-05-07T10:22:32.259Z,4.50
2019-05-07T10:24:41.782Z,7.47
2019-05-07T10:26:49.180Z,7.63
2019-05-07T10:28:57.327Z,7.07
2019-05-07T10:31:04.729Z,4.40
2019-05-07T10:33:12.450Z,5.03
2019-05-07T10:35:20.122Z,7.20
2019-05-07T10:37:27.412Z,4.73
2019-05-07T10:39:34.918Z,8.40
2019-05-07T10:41:42.567Z,7.13
2019-05-07T10:43:51.905Z,9.43
2019-05-07T10:46:18.040Z,10.55
2019-05-07T10:48:42.702Z,5.30
2019-05-07T10:50:51.742Z,13.40
2019-05-07T10:52:59.186Z,8.27
2019-05-07T10:55:06.878Z,15.20
2019-05-07T10:57:14.046Z,7.23
2019-05-07T10:59:22.520Z,5.20
2019-05-07T11:01:38.918Z,3.93
2019-05-07T11:03:46.843Z,5.35
2019-05-07T11:05:54.650Z,9.17
2019-05-07T11:08:02.459Z,6.13
2019-05-07T11:10:12.207Z,5.03
2019-05-07T11:12:19.219Z,5.87
2019-05-07T11:14:26.429Z,4.27
2019-05-07T11:16:38.705Z,8.87
2019-05-07T11:18:51.799Z,5.50
2019-05-07T11:20:59.200Z,5.17
2019-05-07T11:23:06.645Z,8.90
2019-05-07T11:25:14.273Z,5.00
2019-05-07T11:27:22.510Z,7.90
2019-05-07T11:29:30.023Z,5.00
2019-05-07T11:31:37.372Z,5.60
2019-05-07T11:33:44.693Z,8.10
2019-05-07T11:35:52.764Z,6.70
2019-05-07T11:38:03.782Z,7.70
2019-05-07T11:40:13.077Z,7.63
2019-05-07T11:42:45.064Z,7.40
2019-05-07T11:44:54.938Z,7.70
2019-05-07T11:47:18.769Z,8.40
2019-05-07T11:49:32.725Z,4.37
2019-05-07T11:51:45.253Z,9.80
2019-05-07T11:54:12.742Z,8.30
2019-05-07T11:56:21.980Z,5.37
2019-05-07T11:58:29.755Z,7.77
2019-05-07T12:01:12.513Z,4.87
2019-05-07T12:03:22.139Z,5.43
2019-05-07T12:05:29.608Z,8.70
2019-05-07T12:07:36.986Z,8.47
2019-05-07T12:09:44.503Z,4.30
2019-05-07T12:11:52.113Z,4.10
2019-05-07T12:13:59.554Z,5.03
2019-05-07T12:16:07.106Z,5.72
2019-05-07T12:18:14.493Z,6.47
2019-05-07T12:20:22.422Z,6.40
2019-05-07T12:22:47.842Z,4.90
2019-05-07T12:24:55.198Z,10.20
2019-05-07T12:27:02.914Z,14.40
2019-05-07T12:29:11.833Z,10.70
2019-05-07T12:31:38.170Z,6.53
2019-05-07T12:34:05.235Z,6.90
2019-05-07T12:36:13.481Z,8.07
2019-05-07T12:38:21.956Z,6.07
2019-05-07T12:40:32.507Z,10.13
2019-05-07T12:42:42.422Z,7.83
2019-05-07T12:44:49.259Z,8.20
2019-05-07T12:46:56.522Z,9.23
2019-05-07T12:49:04.267Z,8.57
2019-05-07T12:51:12.577Z,4.73
2019-05-07T12:53:42.461Z,6.00
2019-05-07T12:55:56.311Z,6.67
2019-05-07T12:58:03.753Z,6.27
2019-05-07T13:00:32.331Z,5.53
2019-05-07T13:02:46.453Z,5.93
2019-05-07T13:04:53.824Z,5.10
2019-05-07T13:07:08.025Z,3.87
2019-05-07T13:09:15.882Z,5.37
2019-05-07T13:11:23.254Z,5.67
2019-05-07T13:13:32.040Z,5.22
2019-05-07T13:15:39.630Z,7.50
2019-05-07T13:17:47.062Z,5.67
2019-05-07T13:19:54.555Z,5.17
2019-05-07T13:22:05.203Z,6.33
2019-05-07T13:24:18.375Z,5.70
2019-05-07T13:26:24.916Z,8.13
2019-05-07T13:28:32.398Z,6.87
2019-05-07T13:30:43.588Z,3.70
2019-05-07T13:32:52.606Z,6.43
2019-05-07T13:35:02.787Z,6.03
2019-05-07T13:37:15.691Z,5.63
2019-05-07T13:39:48.205Z,4.97
2019-05-07T13:42:04.474Z,8.50
2019-05-07T13:44:40.229Z,8.40
2019-05-07T13:46:49.684Z,7.60
2019-05-07T13:48:57.290Z,17.17
2019-05-07T13:51:05.723Z,10.83
2019-05-07T13:53:13.581Z,7.40
2019-05-07T13:55:21.853Z,6.03
2019-05-07T13:57:29.473Z,11.97
2019-05-07T13:59:37.377Z,6.70
2019-05-07T14:01:55.476Z,6.50
2019-05-07T14:04:04.101Z,4.37
2019-05-07T14:06:13.245Z,9.23
2019-05-07T14:08:23.048Z,4.23
2019-05-07T14:10:33.552Z,4.87
2019-05-07T14:12:39.771Z,5.93
2019-05-07T14:14:47.693Z,4.93
2019-05-07T14:16:55.110Z,5.60
2019-05-07T14:19:04.212Z,6.57
2019-05-07T14:21:13.030Z,10.03
2019-05-07T14:23:21.760Z,7.53
2019-05-07T14:25:29.148Z,6.23
2019-05-07T14:27:36.591Z,3.30
2019-05-07T14:29:44.057Z,4.50
2019-05-07T14:31:58.607Z,5.67
2019-05-07T14:34:18.925Z,7.87
2019-05-07T14:36:42.633Z,3.83
2019-05-07T14:38:52.009Z,5.30
2019-05-07T14:41:00.137Z,4.23
2019-05-07T14:43:13.231Z,8.87
2019-05-07T14:45:23.554Z,5.13
2019-05-07T14:47:30.212Z,5.93
2019-05-07T14:49:37.686Z,6.47
2019-05-07T14:51:45.210Z,5.13
2019-05-07T14:53:52.785Z,4.10
2019-05-07T14:56:00.308Z,10.50
2019-05-07T14:58:07.668Z,6.47
2019-05-07T15:00:16.045Z,6.23
2019-05-07T15:02:23.939Z,4.13
2019-05-07T15:04:31.471Z,5.97
2019-05-07T15:06:39.316Z,4.67
2019-05-07T15:08:47.258Z,6.33
2019-05-07T15:10:55.052Z,3.97
2019-05-07T15:13:02.824Z,4.83
2019-05-07T15:15:12.648Z,5.40
2019-05-07T15:17:39.333Z,3.50
2019-05-07T15:19:47.034Z,7.95
2019-05-07T15:21:58.423Z,5.27
2019-05-07T15:24:05.998Z,3.80
2019-05-07T15:26:13.535Z,3.80
2019-05-07T15:28:22.845Z,4.50
2019-05-07T15:30:37.655Z,7.80
2019-05-07T15:32:45.022Z,10.03
2019-05-07T15:34:52.760Z,6.37
2019-05-07T15:37:01.647Z,6.87
2019-05-07T15:39:09.380Z,7.07
2019-05-07T15:41:17.036Z,7.07
2019-05-07T15:43:24.397Z,4.10
2019-05-07T15:45:32.195Z,4.43
2019-05-07T15:47:44.137Z,5.15
2019-05-07T15:49:51.474Z,5.50
2019-05-07T15:52:01.819Z,5.37
2019-05-07T15:54:09.774Z,7.67
2019-05-07T15:56:17.611Z,11.77
2019-05-07T15:58:24.994Z,8.60
2019-05-07T16:00:33.868Z,16.43
2019-05-07T16:02:45.327Z,7.00
2019-05-07T16:04:53.580Z,5.27
2019-05-07T16:07:05.146Z,11.93
2019-05-07T16:09:12.863Z,13.10
2019-05-07T16:11:23.043Z,88.83
2019-05-07T16:13:32.768Z,185.33
2019-05-07T16:15:42.327Z,270.37
2019-05-07T16:17:58.119Z,398.00
2019-05-07T16:20:06.929Z,320.80
2019-05-07T16:22:19.512Z,464.47
2019-05-07T16:24:26.851Z,23.87
2019-05-07T16:26:34.286Z,14.10
2019-05-07T16:28:41.775Z,9.73
2019-05-07T16:30:49.217Z,6.70
2019-05-07T16:32:56.698Z,11.43
2019-05-07T16:35:05.685Z,5.97
2019-05-07T16:37:14.017Z,6.47
2019-05-07T16:39:22.156Z,6.40
2019-05-07T16:41:31.640Z,9.13
2019-05-07T16:43:39.252Z,12.30
2019-05-07T16:45:47.051Z,8.47
2019-05-07T16:47:55.022Z,6.23
2019-05-07T16:50:04.202Z,6.17
2019-05-07T16:52:12.059Z,7.23
2019-05-07T16:54:19.523Z,7.83
2019-05-07T16:56:27.183Z,5.57
2019-05-07T16:58:42.762Z,8.80
2019-05-07T17:00:53.211Z,9.23
2019-05-07T17:03:02.228Z,8.07
2019-05-07T17:05:13.999Z,6.63
2019-05-07T17:07:22.069Z,5.43
2019-05-07T17:09:32.226Z,6.40
2019-05-07T17:11:39.947Z,7.53
2019-05-07T17:13:47.685Z,2.67
2019-05-07T17:15:56.481Z,8.17
2019-05-07T17:18:03.937Z,9.83
2019-05-07T17:20:12.729Z,5.70
2019-05-07T17:22:22.600Z,6.13
2019-05-07T17:24:29.335Z,9.90
2019-05-07T17:26:36.847Z,7.77
2019-05-07T17:28:44.639Z,7.80
2019-05-07T17:30:52.526Z,7.30
2019-05-07T17:33:01.943Z,10.53
2019-05-07T17:35:09.267Z,4.07
2019-05-07T17:37:16.586Z,11.43
2019-05-07T17:39:24.205Z,6.53
2019-05-07T17:41:32.387Z,15.43
2019-05-07T17:43:40.387Z,8.80
2019-05-07T17:45:48.429Z,9.90
2019-05-07T17:47:56.224Z,8.37
2019-05-07T17:50:05.777Z,8.13
2019-05-07T17:52:13.091Z,6.17
2019-05-07T17:54:22.462Z,7.10
2019-05-07T17:56:31.916Z,8.83
2019-05-07T17:58:38.999Z,13.87
2019-05-07T18:00:48.806Z,12.13
2019-05-07T18:03:13.802Z,8.50
2019-05-07T18:05:21.501Z,12.27
2019-05-07T18:07:28.988Z,18.40
2019-05-07T18:09:36.598Z,16.83
2019-05-07T18:11:44.158Z,16.03
2019-05-07T18:13:52.691Z,8.53
2019-05-07T18:16:07.007Z,14.40
2019-05-07T18:18:15.612Z,7.13
2019-05-07T18:20:23.212Z,9.73
2019-05-07T18:22:32.546Z,16.10
2019-05-07T18:24:41.928Z,42.80
2019-05-07T18:26:49.570Z,76.47
2019-05-07T18:28:57.002Z,57.97
2019-05-07T18:31:04.528Z,63.87
2019-05-07T18:33:30.088Z,94.90
2019-05-07T18:35:37.557Z,53.00
2019-05-07T18:37:54.008Z,63.10
2019-05-07T18:40:02.545Z,41.37
2019-05-07T18:42:10.290Z,37.90
2019-05-07T18:44:17.850Z,37.77
2019-05-07T18:46:25.385Z,30.67
2019-05-07T18:48:32.760Z,26.60
2019-05-07T18:50:41.945Z,27.93
2019-05-07T18:52:49.574Z,25.37
2019-05-07T18:54:57.366Z,22.57
2019-05-07T18:57:05.341Z,18.80
2019-05-07T18:59:13.904Z,17.40
2019-05-07T19:01:23.739Z,27.57
2019-05-07T19:03:32.472Z,37.93
2019-05-07T19:05:42.298Z,16.93
2019-05-07T19:08:02.388Z,24.23
2019-05-07T19:09:59.088Z,13.07
2019-05-07T19:12:08.037Z,19.20
2019-05-07T19:14:15.472Z,14.10
2019-05-07T19:16:23.165Z,14.87
2019-05-07T19:18:32.209Z,17.00
2019-05-07T19:20:42.000Z,18.67
2019-05-07T19:22:51.724Z,22.73
2019-05-07T19:24:59.742Z,20.33
2019-05-07T19:27:07.898Z,24.63
2019-05-07T19:29:15.805Z,33.80
2019-05-07T19:31:23.415Z,31.57
2019-05-07T19:33:32.503Z,22.13
2019-05-07T19:35:41.884Z,25.07
2019-05-07T19:37:49.486Z,24.33
2019-05-07T19:39:56.954Z,46.47
2019-05-07T19:42:04.484Z,65.33
2019-05-07T19:44:12.773Z,81.10
2019-05-07T19:46:22.679Z,111.73
2019-05-07T19:48:32.152Z,98.10
2019-05-07T19:50:39.074Z,95.30
2019-05-07T19:52:46.551Z,89.70
2019-05-07T19:55:00.903Z,84.73
2019-05-07T19:57:04.197Z,76.87
2019-05-07T19:59:12.613Z,65.70
2019-05-07T20:01:24.680Z,67.63
2019-05-07T20:03:32.420Z,61.30
2019-05-07T20:05:41.945Z,51.20
2019-05-07T20:07:53.351Z,58.23
2019-05-07T20:09:59.204Z,47.10
2019-05-07T20:12:08.110Z,41.57
2019-05-07T20:14:15.895Z,38.93
2019-05-07T20:16:23.854Z,36.90
2019-05-07T20:18:33.092Z,41.33
2019-05-07T20:20:42.403Z,47.53
2019-05-07T20:22:51.747Z,54.38
2019-05-07T20:25:12.378Z,102.37
2019-05-07T20:27:08.517Z,69.13
2019-05-07T20:29:16.053Z,177.43
2019-05-07T20:31:23.546Z,165.10
2019-05-07T20:33:33.072Z,137.63
2019-05-07T20:35:41.848Z,109.53
2019-05-07T20:37:49.203Z,133.10
2019-05-07T20:39:56.699Z,232.33
2019-05-07T20:42:04.305Z,240.73
2019-05-07T20:44:12.127Z,205.87
2019-05-07T20:46:20.065Z,187.73
2019-05-07T20:48:28.019Z,136.37
2019-05-07T20:50:35.466Z,98.30
2019-05-07T20:52:43.315Z,88.03
2019-05-07T20:55:06.792Z,141.17
2019-05-07T20:57:23.168Z,106.17
2019-05-07T20:59:32.795Z,81.80
2019-05-07T21:01:41.948Z,84.20
2019-05-07T21:03:52.576Z,68.20
2019-05-07T21:05:59.364Z,77.87
2019-05-07T21:08:06.654Z,90.33
2019-05-07T21:10:14.324Z,78.97
2019-05-07T21:12:22.467Z,76.43
2019-05-07T21:14:32.271Z,82.83
2019-05-07T21:16:39.270Z,109.13
2019-05-07T21:18:46.689Z,124.17
2019-05-07T21:20:54.140Z,112.13
2019-05-07T21:23:02.706Z,103.93
2019-05-07T21:25:11.988Z,117.33
2019-05-07T21:27:19.581Z,97.07
2019-05-07T21:29:26.987Z,109.07
2019-05-07T21:31:34.415Z,128.07
2019-05-07T21:33:42.890Z,144.57
2019-05-07T21:35:52.278Z,140.37
2019-05-07T21:38:00.061Z,156.57
2019-05-07T21:40:07.534Z,143.70
2019-05-07T21:42:15.785Z,150.23
2019-05-07T21:44:25.336Z,158.27
2019-05-07T21:46:32.970Z,257.27
2019-05-07T21:48:40.565Z,258.57
2019-05-07T21:50:47.926Z,247.60
2019-05-07T21:53:02.707Z,208.00
2019-05-07T21:55:34.592Z,194.73
2019-05-07T21:57:48.876Z,172.53
2019-05-07T22:00:14.224Z,163.80
2019-05-07T22:02:24.729Z,149.00
2019-05-07T22:04:32.176Z,143.20
2019-05-07T22:06:39.645Z,136.43
2019-05-07T22:08:47.084Z,139.63
2019-05-07T22:10:54.454Z,127.00
2019-05-07T22:13:03.256Z,117.73
2019-05-07T22:15:12.991Z,118.97
2019-05-07T22:17:21.907Z,114.50
2019-05-07T22:19:33.540Z,98.33
2019-05-07T22:21:38.756Z,105.53
2019-05-07T22:23:46.373Z,83.70
2019-05-07T22:25:53.974Z,80.40
2019-05-07T22:28:01.906Z,73.10
2019-05-07T22:30:13.194Z,62.87
2019-05-07T22:32:37.127Z,57.37
2019-05-07T22:34:58.175Z,53.90
2019-05-07T22:37:05.655Z,49.00
2019-05-07T22:39:13.076Z,59.17
2019-05-07T22:41:22.421Z,49.67
2019-05-07T22:43:31.706Z,57.33
2019-05-07T22:45:38.535Z,67.30
2019-05-07T22:47:45.948Z,75.47
2019-05-07T22:49:54.012Z,68.80
2019-05-07T22:52:02.327Z,65.93
2019-05-07T22:54:11.862Z,79.40
2019-05-07T22:56:31.977Z,77.00
2019-05-07T22:58:42.169Z,67.47
2019-05-07T23:00:57.456Z,160.93
2019-05-07T23:03:05.143Z,550.10
2019-05-07T23:05:12.863Z,494.47
2019-05-07T23:07:22.320Z,366.87
2019-05-07T23:09:29.300Z,293.60
2019-05-07T23:11:36.722Z,248.20
2019-05-07T23:13:44.112Z,97.63
2019-05-07T23:15:53.726Z,63.57
2019-05-07T23:18:04.181Z,119.07
2019-05-07T23:20:10.486Z,74.30
2019-05-07T23:22:17.846Z,93.23
2019-05-07T23:24:25.428Z,86.47
2019-05-07T23:26:46.579Z,94.73
2019-05-07T23:28:42.004Z,112.27
2019-05-07T23:30:51.695Z,106.80
2019-05-07T23:32:58.295Z,156.70
2019-05-07T23:35:05.702Z,126.53
2019-05-07T23:37:13.004Z,129.30
2019-05-07T23:39:22.111Z,139.93
2019-05-07T23:41:35.490Z,119.20
2019-05-07T23:43:42.810Z,195.00
2019-05-07T23:45:50.094Z,238.13
2019-05-07T23:47:57.420Z,226.27
2019-05-07T23:50:04.887Z,229.67
2019-05-07T23:52:12.928Z,206.53
2019-05-07T23:54:22.711Z,153.87
2019-05-07T23:56:29.231Z,157.57
2019-05-07T23:58:36.529Z,146.57
